createdAt,value
2018-09-25T00:00:11.437Z,1032.61
2018-09-25T00:01:10.776Z,1032.62
2018-09-25T00:02:11.420Z,1032.62
2018-09-25T00:03:11.412Z,1032.58
2018-09-25T00:04:10.742Z,1032.60
2018-09-25T00:05:10.717Z,1032.57
2018-09-25T00:06:10.697Z,1032.58
2018-09-25T00:07:10.688Z,1032.55
2018-09-25T00:08:10.673Z,1032.61
2018-09-25T00:09:10.943Z,1032.58
2018-09-25T00:10:10.700Z,1032.57
2018-09-25T00:11:10.660Z,1032.58
2018-09-25T00:12:10.630Z,1032.58
2018-09-25T00:13:10.623Z,1032.59
2018-09-25T00:14:10.927Z,1032.50
2018-09-25T00:15:11.428Z,1032.53
2018-09-25T00:16:11.412Z,1032.54
2018-09-25T00:17:10.583Z,1032.57
2018-09-25T00:18:10.568Z,1032.55
2018-09-25T00:19:10.929Z,1032.57
2018-09-25T00:20:10.553Z,1032.55
2018-09-25T00:21:10.542Z,1032.53
2018-09-25T00:22:10.525Z,1032.50
2018-09-25T00:23:10.514Z,1032.52
2018-09-25T00:24:10.930Z,1032.44
2018-09-25T00:25:10.506Z,1032.51
2018-09-25T00:26:10.489Z,1032.53
2018-09-25T00:27:11.420Z,1032.52
2018-09-25T00:28:10.463Z,1032.53
2018-09-25T00:29:10.486Z,1032.57
2018-09-25T00:30:10.441Z,1032.58
2018-09-25T00:31:10.432Z,1032.57
2018-09-25T00:32:11.416Z,1032.62
2018-09-25T00:33:10.418Z,1032.60
2018-09-25T00:34:10.404Z,1032.66
2018-09-25T00:35:10.925Z,1032.63
2018-09-25T00:36:10.914Z,1032.68
2018-09-25T00:37:10.912Z,1032.59
2018-09-25T00:38:10.364Z,1032.66
2018-09-25T00:39:10.342Z,1032.66
2018-09-25T00:40:10.359Z,1032.74
2018-09-25T00:41:10.321Z,1032.72
2018-09-25T00:42:10.914Z,1032.60
2018-09-25T00:43:10.302Z,1032.68
2018-09-25T00:44:10.285Z,1032.72
2018-09-25T00:45:10.450Z,1032.69
2018-09-25T00:46:10.915Z,1032.63
2018-09-25T00:47:10.303Z,1032.77
2018-09-25T00:48:10.247Z,1032.77
2018-09-25T00:49:10.233Z,1032.75
2018-09-25T00:50:10.241Z,1032.74
2018-09-25T00:51:10.233Z,1032.70
2018-09-25T00:52:10.221Z,1032.59
2018-09-25T00:53:10.200Z,1032.70
2018-09-25T00:54:10.180Z,1032.63
2018-09-25T00:55:10.203Z,1032.69
2018-09-25T00:56:10.178Z,1032.71
2018-09-25T00:57:10.144Z,1032.76
2018-09-25T00:58:10.133Z,1032.73
2018-09-25T00:59:10.928Z,1032.74
2018-09-25T01:00:10.297Z,1032.74
2018-09-25T01:01:10.917Z,1032.73
2018-09-25T01:02:10.913Z,1032.74
2018-09-25T01:03:10.916Z,1032.76
2018-09-25T01:04:10.071Z,1032.77
2018-09-25T01:05:10.436Z,1032.79
2018-09-25T01:06:10.057Z,1032.78
2018-09-25T01:07:10.036Z,1032.79
2018-09-25T01:08:10.020Z,1032.79
2018-09-25T01:09:10.022Z,1032.82
2018-09-25T01:10:10.437Z,1032.78
2018-09-25T01:11:10.000Z,1032.81
2018-09-25T01:12:09.982Z,1032.81
2018-09-25T01:13:09.976Z,1032.85
2018-09-25T01:14:10.931Z,1032.87
2018-09-25T01:15:10.431Z,1032.91
2018-09-25T01:16:10.919Z,1032.81
2018-09-25T01:17:09.930Z,1032.88
2018-09-25T01:18:10.413Z,1032.84
2018-09-25T01:19:09.952Z,1032.88
2018-09-25T01:20:09.931Z,1032.91
2018-09-25T01:21:09.881Z,1032.84
2018-09-25T01:22:09.873Z,1032.92
2018-09-25T01:23:09.861Z,1032.95
2018-09-25T01:24:09.867Z,1032.96
2018-09-25T01:25:09.873Z,1032.92
2018-09-25T01:26:09.827Z,1032.86
2018-09-25T01:27:09.818Z,1032.95
2018-09-25T01:28:09.803Z,1032.96
2018-09-25T01:29:10.422Z,1032.93
2018-09-25T01:30:09.805Z,1032.87
2018-09-25T01:31:09.773Z,1032.94
2018-09-25T01:32:09.769Z,1032.94
2018-09-25T01:33:09.752Z,1033.00
2018-09-25T01:34:10.418Z,1032.96
2018-09-25T01:35:09.927Z,1032.92
2018-09-25T01:36:10.418Z,1032.99
2018-09-25T01:37:09.704Z,1033.03
2018-09-25T01:38:09.707Z,1032.98
2018-09-25T01:39:09.688Z,1032.99
2018-09-25T01:40:09.846Z,1033.04
2018-09-25T01:41:09.665Z,1033.00
2018-09-25T01:42:09.654Z,1033.02
2018-09-25T01:43:10.423Z,1033.08
2018-09-25T01:44:09.636Z,1033.09
2018-09-25T01:45:09.933Z,1033.04
2018-09-25T01:46:10.419Z,1033.01
2018-09-25T01:47:09.610Z,1033.01
2018-09-25T01:48:09.586Z,1032.99
2018-09-25T01:49:09.578Z,1033.09
2018-09-25T01:50:09.589Z,1033.03
2018-09-25T01:51:10.417Z,1033.09
2018-09-25T01:52:09.551Z,1033.07
2018-09-25T01:53:10.421Z,1033.06
2018-09-25T01:54:10.427Z,1033.06
2018-09-25T01:55:09.930Z,1033.02
2018-09-25T01:56:09.527Z,1033.08
2018-09-25T01:57:09.491Z,1033.07
2018-09-25T01:58:10.429Z,1033.07
2018-09-25T01:59:09.470Z,1033.08
2018-09-25T02:00:09.955Z,1033.09
2018-09-25T02:01:10.424Z,1033.09
2018-09-25T02:02:10.426Z,1033.13
2018-09-25T02:03:09.428Z,1033.18
2018-09-25T02:04:09.416Z,1033.13
2018-09-25T02:05:09.959Z,1033.14
2018-09-25T02:06:09.918Z,1033.15
2018-09-25T02:07:09.917Z,1033.18
2018-09-25T02:08:09.382Z,1033.14
2018-09-25T02:09:09.368Z,1033.13
2018-09-25T02:10:09.432Z,1033.05
2018-09-25T02:11:09.940Z,1033.05
2018-09-25T02:12:09.919Z,1033.09
2018-09-25T02:13:09.322Z,1033.04
2018-09-25T02:14:09.326Z,1033.01
2018-09-25T02:15:09.390Z,1033.07
2018-09-25T02:16:09.288Z,1033.00
2018-09-25T02:17:09.279Z,1033.02
2018-09-25T02:18:09.267Z,1033.01
2018-09-25T02:19:09.257Z,1033.01
2018-09-25T02:20:09.282Z,1032.97
2018-09-25T02:21:09.918Z,1032.98
2018-09-25T02:22:09.226Z,1033.00
2018-09-25T02:23:09.219Z,1032.99
2018-09-25T02:24:09.205Z,1032.93
2018-09-25T02:25:09.216Z,1032.98
2018-09-25T02:26:09.196Z,1032.97
2018-09-25T02:27:09.184Z,1032.89
2018-09-25T02:28:09.164Z,1032.93
2018-09-25T02:29:09.925Z,1032.97
2018-09-25T02:30:09.162Z,1032.94
2018-09-25T02:31:09.929Z,1032.93
2018-09-25T02:32:09.133Z,1032.92
2018-09-25T02:33:09.112Z,1032.92
2018-09-25T02:34:09.102Z,1032.89
2018-09-25T02:35:09.216Z,1032.89
2018-09-25T02:36:09.077Z,1032.88
2018-09-25T02:37:09.921Z,1032.85
2018-09-25T02:38:09.923Z,1032.88
2018-09-25T02:39:09.921Z,1032.88
2018-09-25T02:40:09.034Z,1032.88
2018-09-25T02:41:09.434Z,1032.89
2018-09-25T02:42:09.018Z,1032.84
2018-09-25T02:43:09.946Z,1032.91
2018-09-25T02:44:08.995Z,1032.91
2018-09-25T02:45:08.980Z,1032.89
2018-09-25T02:46:08.986Z,1032.89
2018-09-25T02:47:08.958Z,1032.90
2018-09-25T02:48:08.950Z,1032.87
2018-09-25T02:49:08.942Z,1032.88
2018-09-25T02:50:08.925Z,1032.84
2018-09-25T02:51:09.432Z,1032.87
2018-09-25T02:52:09.421Z,1032.91
2018-09-25T02:53:08.894Z,1032.85
2018-09-25T02:54:09.426Z,1032.87
2018-09-25T02:55:08.881Z,1032.80
2018-09-25T02:56:08.953Z,1032.77
2018-09-25T02:57:08.852Z,1032.86
2018-09-25T02:58:09.427Z,1032.85
2018-09-25T02:59:08.830Z,1032.77
2018-09-25T03:00:08.837Z,1032.74
2018-09-25T03:01:08.832Z,1032.81
2018-09-25T03:02:09.432Z,1032.86
2018-09-25T03:03:08.784Z,1032.91
2018-09-25T03:04:08.776Z,1032.86
2018-09-25T03:05:09.436Z,1032.87
2018-09-25T03:06:08.787Z,1032.87
2018-09-25T03:07:09.424Z,1032.86
2018-09-25T03:08:08.732Z,1032.82
2018-09-25T03:09:08.726Z,1032.86
2018-09-25T03:10:08.712Z,1032.84
2018-09-25T03:11:08.956Z,1032.80
2018-09-25T03:12:08.698Z,1032.86
2018-09-25T03:13:09.428Z,1032.84
2018-09-25T03:14:08.679Z,1032.80
2018-09-25T03:15:08.666Z,1032.86
2018-09-25T03:16:08.678Z,1032.91
2018-09-25T03:17:09.432Z,1032.91
2018-09-25T03:18:08.664Z,1032.88
2018-09-25T03:19:08.681Z,1032.92
2018-09-25T03:20:08.605Z,1032.93
2018-09-25T03:21:08.634Z,1032.93
2018-09-25T03:22:09.423Z,1033.00
2018-09-25T03:23:08.582Z,1032.94
2018-09-25T03:24:08.566Z,1033.00
2018-09-25T03:25:09.423Z,1032.97
2018-09-25T03:26:08.950Z,1032.95
2018-09-25T03:27:08.548Z,1033.01
2018-09-25T03:28:08.531Z,1033.01
2018-09-25T03:29:09.433Z,1032.89
2018-09-25T03:30:08.524Z,1032.96
2018-09-25T03:31:08.548Z,1032.96
2018-09-25T03:32:08.502Z,1033.03
2018-09-25T03:33:08.467Z,1033.02
2018-09-25T03:34:09.423Z,1032.94
2018-09-25T03:35:09.424Z,1032.96
2018-09-25T03:36:08.942Z,1032.93
2018-09-25T03:37:08.425Z,1032.87
2018-09-25T03:38:08.925Z,1032.93
2018-09-25T03:39:08.402Z,1032.89
2018-09-25T03:40:08.391Z,1032.91
2018-09-25T03:41:08.436Z,1032.97
2018-09-25T03:42:08.382Z,1032.95
2018-09-25T03:43:08.929Z,1032.96
2018-09-25T03:44:08.353Z,1032.88
2018-09-25T03:45:08.336Z,1032.91
2018-09-25T03:46:08.371Z,1032.92
2018-09-25T03:47:08.329Z,1032.86
2018-09-25T03:48:08.930Z,1032.90
2018-09-25T03:49:08.296Z,1032.90
2018-09-25T03:50:08.283Z,1032.87
2018-09-25T03:51:08.293Z,1032.81
2018-09-25T03:52:08.926Z,1032.83
2018-09-25T03:53:08.926Z,1032.86
2018-09-25T03:54:08.925Z,1032.83
2018-09-25T03:55:08.234Z,1032.82
2018-09-25T03:56:08.473Z,1032.84
2018-09-25T03:57:08.931Z,1032.78
2018-09-25T03:58:08.946Z,1032.81
2018-09-25T03:59:08.933Z,1032.79
2018-09-25T04:00:08.174Z,1032.81
2018-09-25T04:01:09.015Z,1032.81
2018-09-25T04:02:08.164Z,1032.82
2018-09-25T04:03:08.147Z,1032.80
2018-09-25T04:04:08.933Z,1032.81
2018-09-25T04:05:08.926Z,1032.79
2018-09-25T04:06:08.480Z,1032.80
2018-09-25T04:07:08.100Z,1032.84
2018-09-25T04:08:08.928Z,1032.83
2018-09-25T04:09:08.930Z,1032.83
2018-09-25T04:10:08.088Z,1032.82
2018-09-25T04:11:08.450Z,1032.79
2018-09-25T04:12:08.049Z,1032.85
2018-09-25T04:13:08.038Z,1032.82
2018-09-25T04:14:08.026Z,1032.88
2018-09-25T04:15:08.945Z,1032.93
2018-09-25T04:16:08.033Z,1032.90
2018-09-25T04:17:07.996Z,1032.95
2018-09-25T04:18:08.935Z,1032.99
2018-09-25T04:19:07.976Z,1032.90
2018-09-25T04:20:08.928Z,1033.04
2018-09-25T04:21:07.966Z,1033.05
2018-09-25T04:22:07.952Z,1033.03
2018-09-25T04:23:07.929Z,1033.05
2018-09-25T04:24:07.918Z,1033.07
2018-09-25T04:25:08.428Z,1033.02
2018-09-25T04:26:07.948Z,1033.06
2018-09-25T04:27:07.896Z,1033.09
2018-09-25T04:28:07.876Z,1033.08
2018-09-25T04:29:07.866Z,1033.04
2018-09-25T04:30:08.433Z,1033.09
2018-09-25T04:31:07.954Z,1033.07
2018-09-25T04:32:08.478Z,1033.11
2018-09-25T04:33:07.829Z,1033.18
2018-09-25T04:34:07.811Z,1033.18
2018-09-25T04:35:07.801Z,1033.14
2018-09-25T04:36:07.804Z,1033.13
2018-09-25T04:37:07.847Z,1033.07
2018-09-25T04:38:07.792Z,1033.18
2018-09-25T04:39:07.762Z,1033.15
2018-09-25T04:40:08.427Z,1033.17
2018-09-25T04:41:07.938Z,1033.12
2018-09-25T04:42:07.770Z,1033.16
2018-09-25T04:43:07.719Z,1033.20
2018-09-25T04:44:08.434Z,1033.21
2018-09-25T04:45:08.442Z,1033.18
2018-09-25T04:46:08.461Z,1033.23
2018-09-25T04:47:07.960Z,1033.22
2018-09-25T04:48:08.468Z,1033.25
2018-09-25T04:49:08.431Z,1033.23
2018-09-25T04:50:07.637Z,1033.32
2018-09-25T04:51:08.433Z,1033.27
2018-09-25T04:52:07.658Z,1033.22
2018-09-25T04:53:08.431Z,1033.26
2018-09-25T04:54:08.430Z,1033.20
2018-09-25T04:55:08.428Z,1033.21
2018-09-25T04:56:07.598Z,1033.29
2018-09-25T04:57:07.665Z,1033.28
2018-09-25T04:58:07.586Z,1033.24
2018-09-25T04:59:07.541Z,1033.21
2018-09-25T05:00:07.556Z,1033.23
2018-09-25T05:01:08.430Z,1033.15
2018-09-25T05:02:07.559Z,1033.24
2018-09-25T05:03:08.453Z,1033.24
2018-09-25T05:04:07.488Z,1033.28
2018-09-25T05:05:07.475Z,1033.27
2018-09-25T05:06:07.481Z,1033.24
2018-09-25T05:07:07.744Z,1033.28
2018-09-25T05:08:07.534Z,1033.27
2018-09-25T05:09:07.440Z,1033.29
2018-09-25T05:10:07.421Z,1033.23
2018-09-25T05:11:07.409Z,1033.20
2018-09-25T05:12:07.456Z,1033.23
2018-09-25T05:13:07.448Z,1033.26
2018-09-25T05:14:07.396Z,1033.24
2018-09-25T05:15:07.369Z,1033.16
2018-09-25T05:16:07.935Z,1033.31
2018-09-25T05:17:07.367Z,1033.29
2018-09-25T05:18:07.409Z,1033.19
2018-09-25T05:19:07.336Z,1033.33
2018-09-25T05:20:07.314Z,1033.35
2018-09-25T05:21:07.303Z,1033.23
2018-09-25T05:22:07.362Z,1033.33
2018-09-25T05:23:07.300Z,1033.24
2018-09-25T05:24:07.281Z,1033.36
2018-09-25T05:25:07.313Z,1033.43
2018-09-25T05:26:07.930Z,1033.42
2018-09-25T05:27:07.283Z,1033.49
2018-09-25T05:28:07.962Z,1033.45
2018-09-25T05:29:07.223Z,1033.47
2018-09-25T05:30:07.212Z,1033.48
2018-09-25T05:31:07.209Z,1033.45
2018-09-25T05:32:07.456Z,1033.47
2018-09-25T05:33:07.181Z,1033.49
2018-09-25T05:34:07.948Z,1033.43
2018-09-25T05:35:07.931Z,1033.45
2018-09-25T05:36:07.154Z,1033.47
2018-09-25T05:37:07.163Z,1033.46
2018-09-25T05:38:07.152Z,1033.47
2018-09-25T05:39:07.108Z,1033.51
2018-09-25T05:40:07.100Z,1033.49
2018-09-25T05:41:07.093Z,1033.47
2018-09-25T05:42:07.449Z,1033.40
2018-09-25T05:43:07.933Z,1033.38
2018-09-25T05:44:07.052Z,1033.45
2018-09-25T05:45:07.948Z,1033.42
2018-09-25T05:46:08.000Z,1033.43
2018-09-25T05:47:07.457Z,1033.44
2018-09-25T05:48:07.017Z,1033.43
2018-09-25T05:49:07.031Z,1033.50
2018-09-25T05:50:06.992Z,1033.50
2018-09-25T05:51:07.139Z,1033.52
2018-09-25T05:52:07.983Z,1033.51
2018-09-25T05:53:08.021Z,1033.47
2018-09-25T05:54:07.971Z,1033.47
2018-09-25T05:55:07.068Z,1033.53
2018-09-25T05:56:06.921Z,1033.58
2018-09-25T05:57:06.962Z,1033.59
2018-09-25T05:58:06.905Z,1033.55
2018-09-25T05:59:06.893Z,1033.56
2018-09-25T06:00:06.881Z,1033.53
2018-09-25T06:01:06.918Z,1033.54
2018-09-25T06:02:06.877Z,1033.53
2018-09-25T06:03:06.847Z,1033.44
2018-09-25T06:04:07.431Z,1033.54
2018-09-25T06:05:06.842Z,1033.50
2018-09-25T06:06:06.814Z,1033.56
2018-09-25T06:07:07.015Z,1033.56
2018-09-25T06:08:07.439Z,1033.55
2018-09-25T06:09:06.794Z,1033.56
2018-09-25T06:10:06.787Z,1033.54
2018-09-25T06:11:06.758Z,1033.47
2018-09-25T06:12:06.946Z,1033.57
2018-09-25T06:13:06.735Z,1033.58
2018-09-25T06:14:06.726Z,1033.61
2018-09-25T06:15:06.721Z,1033.59
2018-09-25T06:16:07.440Z,1033.66
2018-09-25T06:17:06.944Z,1033.67
2018-09-25T06:18:06.684Z,1033.63
2018-09-25T06:19:07.435Z,1033.67
2018-09-25T06:20:06.668Z,1033.66
2018-09-25T06:21:07.433Z,1033.72
2018-09-25T06:22:06.966Z,1033.75
2018-09-25T06:23:06.816Z,1033.75
2018-09-25T06:24:06.674Z,1033.73
2018-09-25T06:25:06.613Z,1033.74
2018-09-25T06:26:07.459Z,1033.68
2018-09-25T06:27:06.612Z,1033.80
2018-09-25T06:28:07.465Z,1033.82
2018-09-25T06:29:06.599Z,1033.79
2018-09-25T06:30:06.552Z,1033.78
2018-09-25T06:31:06.605Z,1033.81
2018-09-25T06:32:06.948Z,1033.81
2018-09-25T06:33:07.436Z,1033.76
2018-09-25T06:34:07.526Z,1033.79
2018-09-25T06:35:06.499Z,1033.84
2018-09-25T06:36:06.609Z,1033.84
2018-09-25T06:37:07.007Z,1033.81
2018-09-25T06:38:06.469Z,1033.83
2018-09-25T06:39:07.447Z,1033.87
2018-09-25T06:40:06.441Z,1033.87
2018-09-25T06:41:08.980Z,1033.92
2018-09-25T06:42:06.983Z,1033.88
2018-09-25T06:43:06.932Z,1033.91
2018-09-25T06:44:06.938Z,1033.89
2018-09-25T06:45:06.386Z,1033.89
2018-09-25T06:46:07.028Z,1033.93
2018-09-25T06:47:06.989Z,1033.86
2018-09-25T06:48:06.939Z,1033.93
2018-09-25T06:49:06.978Z,1033.95
2018-09-25T06:50:06.960Z,1033.92
2018-09-25T06:51:06.964Z,1033.97
2018-09-25T06:52:07.041Z,1034.03
2018-09-25T06:53:06.328Z,1034.00
2018-09-25T06:54:06.294Z,1034.01
2018-09-25T06:55:06.374Z,1034.01
2018-09-25T06:56:06.939Z,1034.03
2018-09-25T06:57:06.950Z,1034.01
2018-09-25T06:58:07.049Z,1034.05
2018-09-25T06:59:06.943Z,1034.02
2018-09-25T07:00:06.223Z,1034.03
2018-09-25T07:01:06.950Z,1034.03
2018-09-25T07:02:07.059Z,1034.07
2018-09-25T07:03:06.563Z,1034.05
2018-09-25T07:04:06.946Z,1034.11
2018-09-25T07:05:06.172Z,1034.13
2018-09-25T07:06:07.000Z,1034.17
2018-09-25T07:07:06.951Z,1034.20
2018-09-25T07:08:06.968Z,1034.17
2018-09-25T07:09:06.132Z,1034.24
2018-09-25T07:10:07.187Z,1034.28
2018-09-25T07:11:07.018Z,1034.21
2018-09-25T07:12:06.105Z,1034.24
2018-09-25T07:13:06.511Z,1034.30
2018-09-25T07:14:06.959Z,1034.24
2018-09-25T07:15:06.969Z,1034.31
2018-09-25T07:16:06.967Z,1034.37
2018-09-25T07:17:06.944Z,1034.35
2018-09-25T07:18:06.125Z,1034.37
2018-09-25T07:19:06.957Z,1034.33
2018-09-25T07:20:06.022Z,1034.32
2018-09-25T07:21:07.227Z,1034.37
2018-09-25T07:22:07.004Z,1034.34
2018-09-25T07:23:06.480Z,1034.37
2018-09-25T07:24:06.942Z,1034.35
2018-09-25T07:25:06.035Z,1034.34
2018-09-25T07:26:09.029Z,1034.36
2018-09-25T07:27:06.713Z,1034.33
2018-09-25T07:28:07.671Z,1034.36
2018-09-25T07:29:06.444Z,1034.34
2018-09-25T07:30:05.899Z,1034.39
2018-09-25T07:31:06.531Z,1034.33
2018-09-25T07:32:06.447Z,1034.41
2018-09-25T07:33:07.522Z,1034.36
2018-09-25T07:34:06.442Z,1034.34
2018-09-25T07:35:06.458Z,1034.37
2018-09-25T07:36:06.454Z,1034.35
2018-09-25T07:37:05.919Z,1034.33
2018-09-25T07:38:06.705Z,1034.38
2018-09-25T07:39:06.802Z,1034.33
2018-09-25T07:40:06.598Z,1034.35
2018-09-25T07:41:06.451Z,1034.28
2018-09-25T07:42:05.803Z,1034.29
2018-09-25T07:43:06.464Z,1034.37
2018-09-25T07:44:05.952Z,1034.34
2018-09-25T07:45:05.964Z,1034.42
2018-09-25T07:46:06.586Z,1034.35
2018-09-25T07:47:06.560Z,1034.40
2018-09-25T07:48:06.526Z,1034.43
2018-09-25T07:49:06.466Z,1034.41
2018-09-25T07:50:06.448Z,1034.42
2018-09-25T07:51:06.440Z,1034.47
2018-09-25T07:52:06.444Z,1034.48
2018-09-25T07:53:05.978Z,1034.46
2018-09-25T07:54:05.695Z,1034.44
2018-09-25T07:55:05.714Z,1034.42
2018-09-25T07:56:06.460Z,1034.39
2018-09-25T07:57:05.610Z,1034.42
2018-09-25T07:58:06.490Z,1034.49
2018-09-25T07:59:06.489Z,1034.46
2018-09-25T08:00:06.445Z,1034.54
2018-09-25T08:01:06.591Z,1034.45
2018-09-25T08:02:06.636Z,1034.50
2018-09-25T08:03:06.518Z,1034.55
2018-09-25T08:04:06.458Z,1034.60
2018-09-25T08:05:06.471Z,1034.59
2018-09-25T08:06:06.575Z,1034.54
2018-09-25T08:07:06.451Z,1034.55
2018-09-25T08:08:06.465Z,1034.55
2018-09-25T08:09:05.614Z,1034.54
2018-09-25T08:10:08.617Z,1034.54
2018-09-25T08:11:06.513Z,1034.60
2018-09-25T08:12:06.488Z,1034.57
2018-09-25T08:13:06.028Z,1034.61
2018-09-25T08:14:05.450Z,1034.63
2018-09-25T08:15:05.945Z,1034.64
2018-09-25T08:16:05.952Z,1034.65
2018-09-25T08:17:05.948Z,1034.64
2018-09-25T08:18:05.623Z,1034.67
2018-09-25T08:19:05.499Z,1034.63
2018-09-25T08:20:05.367Z,1034.71
2018-09-25T08:21:05.958Z,1034.65
2018-09-25T08:22:06.026Z,1034.69
2018-09-25T08:23:05.996Z,1034.71
2018-09-25T08:24:05.325Z,1034.73
2018-09-25T08:25:05.949Z,1034.74
2018-09-25T08:26:05.955Z,1034.75
2018-09-25T08:27:05.407Z,1034.76
2018-09-25T08:28:05.989Z,1034.77
2018-09-25T08:29:05.388Z,1034.80
2018-09-25T08:30:06.106Z,1034.80
2018-09-25T08:31:05.958Z,1034.80
2018-09-25T08:32:06.009Z,1034.80
2018-09-25T08:33:05.968Z,1034.74
2018-09-25T08:34:05.958Z,1034.87
2018-09-25T08:35:05.271Z,1034.78
2018-09-25T08:36:06.001Z,1034.76
2018-09-25T08:37:05.183Z,1034.79
2018-09-25T08:38:05.970Z,1034.79
2018-09-25T08:39:06.035Z,1034.75
2018-09-25T08:40:05.356Z,1034.81
2018-09-25T08:41:06.076Z,1034.86
2018-09-25T08:42:05.977Z,1034.88
2018-09-25T08:43:06.124Z,1034.85
2018-09-25T08:44:05.119Z,1034.92
2018-09-25T08:45:06.049Z,1034.93
2018-09-25T08:46:05.949Z,1034.93
2018-09-25T08:47:05.952Z,1034.86
2018-09-25T08:48:05.971Z,1034.93
2018-09-25T08:49:06.074Z,1034.91
2018-09-25T08:50:05.984Z,1034.97
2018-09-25T08:51:05.119Z,1034.96
2018-09-25T08:52:05.985Z,1034.87
2018-09-25T08:53:05.992Z,1034.92
2018-09-25T08:54:05.028Z,1034.93
2018-09-25T08:55:05.974Z,1034.91
2018-09-25T08:56:05.961Z,1034.87
2018-09-25T08:57:05.953Z,1034.91
2018-09-25T08:58:05.948Z,1034.85
2018-09-25T08:59:06.494Z,1034.88
2018-09-25T09:00:05.448Z,1034.93
2018-09-25T09:01:05.557Z,1034.88
2018-09-25T09:02:04.918Z,1034.91
2018-09-25T09:03:05.610Z,1034.94
2018-09-25T09:04:05.479Z,1034.89
2018-09-25T09:05:05.451Z,1034.92
2018-09-25T09:06:05.580Z,1034.90
2018-09-25T09:07:04.956Z,1034.93
2018-09-25T09:08:05.477Z,1034.94
2018-09-25T09:09:05.520Z,1034.84
2018-09-25T09:10:04.943Z,1034.96
2018-09-25T09:11:05.665Z,1034.96
2018-09-25T09:12:05.446Z,1034.96
2018-09-25T09:13:05.450Z,1034.99
2018-09-25T09:14:05.521Z,1034.98
2018-09-25T09:15:04.849Z,1034.89
2018-09-25T09:16:04.775Z,1034.99
2018-09-25T09:17:05.513Z,1034.96
2018-09-25T09:18:05.448Z,1034.96
2018-09-25T09:19:05.524Z,1034.95
2018-09-25T09:20:05.532Z,1034.99
2018-09-25T09:21:04.704Z,1034.96
2018-09-25T09:22:05.454Z,1034.93
2018-09-25T09:23:04.811Z,1034.96
2018-09-25T09:24:05.472Z,1034.96
2018-09-25T09:25:05.529Z,1034.92
2018-09-25T09:26:05.454Z,1034.92
2018-09-25T09:27:05.454Z,1034.84
2018-09-25T09:28:05.458Z,1034.88
2018-09-25T09:29:05.476Z,1034.92
2018-09-25T09:30:05.628Z,1034.94
2018-09-25T09:31:05.471Z,1034.93
2018-09-25T09:32:04.603Z,1034.95
2018-09-25T09:33:05.456Z,1034.92
2018-09-25T09:34:05.482Z,1034.85
2018-09-25T09:35:04.557Z,1034.95
2018-09-25T09:36:05.578Z,1034.96
2018-09-25T09:37:05.551Z,1034.97
2018-09-25T09:38:05.494Z,1034.94
2018-09-25T09:39:05.645Z,1034.98
2018-09-25T09:40:05.469Z,1035.01
2018-09-25T09:41:04.591Z,1034.93
2018-09-25T09:42:05.695Z,1034.95
2018-09-25T09:43:05.449Z,1034.98
2018-09-25T09:44:04.993Z,1035.01
2018-09-25T09:45:04.954Z,1035.00
2018-09-25T09:46:04.431Z,1035.00
2018-09-25T09:47:05.033Z,1035.01
2018-09-25T09:48:05.050Z,1035.04
2018-09-25T09:49:04.975Z,1035.03
2018-09-25T09:50:04.387Z,1035.03
2018-09-25T09:51:05.159Z,1035.07
2018-09-25T09:52:04.951Z,1035.00
2018-09-25T09:53:04.963Z,1035.03
2018-09-25T09:54:05.001Z,1035.03
2018-09-25T09:55:04.948Z,1034.99
2018-09-25T09:56:05.035Z,1034.97
2018-09-25T09:57:04.997Z,1035.05
2018-09-25T09:58:04.379Z,1035.01
2018-09-25T09:59:04.988Z,1035.10
2018-09-25T10:00:04.952Z,1035.15
2018-09-25T10:01:05.084Z,1035.12
2018-09-25T10:02:05.042Z,1035.17
2018-09-25T10:03:04.280Z,1035.14
2018-09-25T10:04:04.997Z,1035.16
2018-09-25T10:05:04.967Z,1035.17
2018-09-25T10:06:04.968Z,1035.15
2018-09-25T10:07:05.068Z,1035.14
2018-09-25T10:08:04.239Z,1035.16
2018-09-25T10:09:04.218Z,1035.14
2018-09-25T10:10:05.007Z,1035.11
2018-09-25T10:11:04.954Z,1035.16
2018-09-25T10:12:04.218Z,1035.13
2018-09-25T10:13:04.986Z,1035.11
2018-09-25T10:14:04.995Z,1035.08
2018-09-25T10:15:04.964Z,1035.10
2018-09-25T10:16:04.973Z,1035.04
2018-09-25T10:17:04.988Z,1035.08
2018-09-25T10:18:05.133Z,1035.09
2018-09-25T10:19:05.994Z,1035.09
2018-09-25T10:20:04.949Z,1035.07
2018-09-25T10:21:04.188Z,1035.06
2018-09-25T10:22:18.956Z,1035.09
2018-09-25T10:23:05.156Z,1035.09
2018-09-25T10:24:04.981Z,1035.02
2018-09-25T10:25:04.959Z,1035.09
2018-09-25T10:26:04.955Z,1035.07
2018-09-25T10:27:05.027Z,1035.05
2018-09-25T10:28:04.967Z,1035.06
2018-09-25T10:29:06.007Z,1035.10
2018-09-25T10:30:05.092Z,1035.07
2018-09-25T10:31:04.084Z,1035.06
2018-09-25T10:32:04.476Z,1035.14
2018-09-25T10:33:04.607Z,1035.10
2018-09-25T10:34:05.544Z,1035.05
2018-09-25T10:35:04.543Z,1035.07
2018-09-25T10:36:04.530Z,1035.09
2018-09-25T10:37:04.549Z,1035.09
2018-09-25T10:38:10.465Z,1035.05
2018-09-25T10:39:04.544Z,1035.07
2018-09-25T10:40:04.456Z,1035.03
2018-09-25T10:41:04.627Z,1035.07
2018-09-25T10:42:04.457Z,1035.05
2018-09-25T10:43:04.484Z,1035.02
2018-09-25T10:44:04.593Z,1035.08
2018-09-25T10:45:04.454Z,1035.11
2018-09-25T10:46:04.591Z,1035.10
2018-09-25T10:47:04.510Z,1035.09
2018-09-25T10:48:06.506Z,1035.08
2018-09-25T10:49:05.571Z,1035.09
2018-09-25T10:50:04.531Z,1035.09
2018-09-25T10:51:04.522Z,1035.11
2018-09-25T10:52:03.948Z,1035.08
2018-09-25T10:53:03.788Z,1035.06
2018-09-25T10:54:04.106Z,1035.08
2018-09-25T10:55:06.013Z,1035.07
2018-09-25T10:56:04.563Z,1035.06
2018-09-25T10:57:04.476Z,1035.01
2018-09-25T10:58:03.815Z,1034.99
2018-09-25T11:00:14.290Z,1034.99
2018-09-25T11:01:14.405Z,1034.98
2018-09-25T11:02:15.184Z,1034.98
2018-09-25T11:03:15.314Z,1034.95
2018-09-25T11:04:14.617Z,1034.95
2018-09-25T11:05:15.089Z,1034.94
2018-09-25T11:06:15.086Z,1034.95
2018-09-25T11:07:15.212Z,1034.94
2018-09-25T11:08:15.089Z,1034.94
2018-09-25T11:09:14.604Z,1034.92
2018-09-25T11:10:15.123Z,1034.99
2018-09-25T11:11:15.082Z,1034.93
2018-09-25T11:12:21.125Z,1035.00
2018-09-25T11:13:15.091Z,1034.95
2018-09-25T11:14:16.172Z,1034.93
2018-09-25T11:15:15.088Z,1034.95
2018-09-25T11:16:15.113Z,1034.95
2018-09-25T11:17:15.093Z,1034.96
2018-09-25T11:18:14.583Z,1034.94
2018-09-25T11:19:14.630Z,1034.92
2018-09-25T11:20:14.595Z,1034.92
2018-09-25T11:21:14.597Z,1034.90
2018-09-25T11:22:16.688Z,1034.88
2018-09-25T11:23:14.591Z,1034.85
2018-09-25T11:24:14.596Z,1034.89
2018-09-25T11:25:14.609Z,1034.87
2018-09-25T11:26:14.640Z,1034.92
2018-09-25T11:27:14.596Z,1034.87
2018-09-25T11:28:14.602Z,1034.92
2018-09-25T11:29:14.647Z,1034.93
2018-09-25T11:30:14.626Z,1034.88
2018-09-25T11:31:14.623Z,1034.86
2018-09-25T11:32:14.793Z,1034.92
2018-09-25T11:33:14.595Z,1034.88
2018-09-25T11:34:18.581Z,1034.88
2018-09-25T11:35:14.686Z,1034.80
2018-09-25T11:36:35.884Z,1034.79
2018-09-25T11:37:14.591Z,1034.76
2018-09-25T11:38:37.672Z,1034.70
2018-09-25T11:39:13.901Z,1034.63
2018-09-25T11:40:14.124Z,1034.67
2018-09-25T11:41:14.735Z,1034.66
2018-09-25T11:42:14.591Z,1034.61
2018-09-25T11:43:14.590Z,1034.67
2018-09-25T11:44:14.601Z,1034.68
2018-09-25T11:45:14.616Z,1034.66
2018-09-25T11:46:14.591Z,1034.67
2018-09-25T11:47:14.748Z,1034.65
2018-09-25T11:48:14.646Z,1034.64
2018-09-25T11:49:14.692Z,1034.69
2018-09-25T11:50:14.613Z,1034.69
2018-09-25T11:51:14.602Z,1034.72
2018-09-25T11:52:13.761Z,1034.74
2018-09-25T11:53:14.602Z,1034.75
2018-09-25T11:54:14.600Z,1034.78
2018-09-25T11:55:14.106Z,1034.87
2018-09-25T11:56:14.686Z,1034.78
2018-09-25T11:57:13.774Z,1034.75
2018-09-25T11:58:14.587Z,1034.75
2018-09-25T11:59:14.604Z,1034.77
2018-09-25T12:00:14.669Z,1034.71
2018-09-25T12:01:13.833Z,1034.64
2018-09-25T12:02:13.700Z,1034.63
2018-09-25T12:03:14.795Z,1034.55
2018-09-25T12:04:14.211Z,1034.50
2018-09-25T12:05:15.336Z,1034.51
2018-09-25T12:06:14.089Z,1034.50